Moreauville, Louisiana
Current Conditions -  °F | °C
As of 12:53 PM on Thursday 18 Dec 2014 (Local Time) from KESF Reporting Station
Overcast Overcast  
Wind Chill: 52°   Ceiling: 600
Heat Index: 52°   Visibility: 10mi
Dew Point: 49°   Wind: 3mph
Humidity: 89%   Direction: 20°NNE
Pressure: 30.13"   Gusts: NA
Location:  31.03°N, 91.98°W
Report Text: KESF 181853Z AUTO 02003KT 10SM OVC006 11/09 A3013 RMK AO2 SLP203 T01110094
Loading
Personal Weather Stations






























Interactive Weather Map New forecast layout! Learn more

10-Day Weather Forecast

Advertisements
Track Severe Weather on mobile